createdAt,value
2023-09-08T00:00:48.769Z,4.15
2023-09-08T00:03:52.348Z,4.18
2023-09-08T00:06:55.808Z,3.80
2023-09-08T00:09:59.039Z,4.47
2023-09-08T00:13:02.257Z,4.93
2023-09-08T00:16:05.662Z,4.22
2023-09-08T00:19:08.867Z,3.83
2023-09-08T00:22:12.148Z,4.55
2023-09-08T00:25:15.341Z,3.90
2023-09-08T00:28:18.550Z,3.83
2023-09-08T00:31:21.774Z,4.30
2023-09-08T00:34:24.993Z,4.40
2023-09-08T00:37:28.250Z,3.92
2023-09-08T00:40:31.669Z,5.10
2023-09-08T00:43:34.744Z,4.30
2023-09-08T00:46:38.149Z,4.03
2023-09-08T00:49:41.456Z,4.30
2023-09-08T00:52:44.782Z,3.72
2023-09-08T00:55:49.045Z,4.90
2023-09-08T00:58:52.378Z,4.80
2023-09-08T01:01:55.295Z,3.90
2023-09-08T01:05:01.051Z,4.70
2023-09-08T01:08:05.228Z,3.85
2023-09-08T01:11:13.456Z,4.28
2023-09-08T01:14:21.771Z,4.03
2023-09-08T01:17:28.107Z,3.30
2023-09-08T01:21:02.861Z,4.38
2023-09-08T01:24:27.112Z,3.88
2023-09-08T01:27:32.610Z,5.25
2023-09-08T01:30:36.543Z,4.57
2023-09-08T01:33:42.459Z,3.85
2023-09-08T01:36:46.869Z,5.25
2023-09-08T01:39:50.205Z,4.03
2023-09-08T01:42:57.502Z,3.65
2023-09-08T01:46:05.869Z,3.70
2023-09-08T01:49:09.070Z,4.65
2023-09-08T01:52:13.006Z,3.90
2023-09-08T01:55:17.757Z,3.78
2023-09-08T01:58:21.125Z,3.80
2023-09-08T02:01:24.576Z,3.67
2023-09-08T02:04:27.817Z,4.35
2023-09-08T02:07:31.191Z,4.88
2023-09-08T02:10:34.163Z,4.20
2023-09-08T02:13:38.088Z,4.10
2023-09-08T02:16:41.365Z,3.23
2023-09-08T02:19:44.646Z,3.90
2023-09-08T02:22:50.670Z,4.88
2023-09-08T02:25:54.079Z,3.58
2023-09-08T02:28:56.939Z,3.63
2023-09-08T02:32:05.125Z,3.43
2023-09-08T02:35:09.079Z,3.53
2023-09-08T02:38:12.316Z,3.95
2023-09-08T02:41:15.659Z,4.93
2023-09-08T02:44:19.132Z,4.28
2023-09-08T02:47:22.964Z,3.40
2023-09-08T02:50:27.070Z,3.65
2023-09-08T02:53:30.051Z,3.70
2023-09-08T02:56:33.122Z,3.25
2023-09-08T02:59:36.078Z,4.00
2023-09-08T03:02:39.495Z,4.17
2023-09-08T03:05:43.297Z,3.53
2023-09-08T03:08:46.529Z,3.50
2023-09-08T03:11:49.395Z,3.47
2023-09-08T03:14:52.431Z,3.67
2023-09-08T03:18:02.374Z,3.13
2023-09-08T03:21:13.004Z,3.47
2023-09-08T03:24:16.274Z,3.88
2023-09-08T03:27:19.518Z,3.58
2023-09-08T03:30:22.437Z,3.65
2023-09-08T03:33:25.928Z,3.70
2023-09-08T03:36:29.343Z,3.88
2023-09-08T03:39:37.711Z,2.75
2023-09-08T03:42:43.498Z,3.42
2023-09-08T03:45:46.817Z,5.35
2023-09-08T03:48:50.749Z,4.03
2023-09-08T03:51:53.952Z,3.13
2023-09-08T03:54:57.397Z,4.03
2023-09-08T03:58:00.402Z,3.75
2023-09-08T04:01:03.567Z,3.40
2023-09-08T04:04:06.653Z,2.93
2023-09-08T04:07:09.897Z,4.05
2023-09-08T04:10:13.932Z,4.57
2023-09-08T04:13:17.168Z,3.40
2023-09-08T04:16:20.531Z,3.83
2023-09-08T04:19:23.853Z,4.47
2023-09-08T04:22:27.124Z,3.33
2023-09-08T04:25:30.383Z,3.80
2023-09-08T04:28:33.642Z,3.22
2023-09-08T04:31:38.309Z,3.30
2023-09-08T04:34:45.875Z,3.67
2023-09-08T04:37:49.065Z,3.58
2023-09-08T04:40:52.319Z,3.38
2023-09-08T04:43:56.769Z,4.03
2023-09-08T04:47:00.738Z,3.95
2023-09-08T04:50:04.972Z,3.53
2023-09-08T04:53:08.299Z,2.70
2023-09-08T04:56:11.323Z,3.60
2023-09-08T04:59:14.512Z,4.05
2023-09-08T05:02:19.702Z,4.07
2023-09-08T05:05:23.187Z,3.87
2023-09-08T05:08:26.274Z,4.38
2023-09-08T05:11:29.606Z,5.00
2023-09-08T05:14:33.281Z,5.97
2023-09-08T05:17:36.999Z,8.10
2023-09-08T05:20:41.863Z,7.23
2023-09-08T05:23:45.169Z,7.13
2023-09-08T05:26:49.095Z,6.53
2023-09-08T05:29:52.193Z,9.35
2023-09-08T05:32:58.454Z,6.93
2023-09-08T05:36:02.181Z,7.43
2023-09-08T05:39:06.659Z,8.63
2023-09-08T05:42:09.746Z,8.70
2023-09-08T05:45:12.992Z,5.90
2023-09-08T05:48:16.446Z,10.25
2023-09-08T05:51:19.845Z,10.20
2023-09-08T05:54:22.979Z,11.80
2023-09-08T05:57:26.095Z,11.85
2023-09-08T06:00:29.624Z,10.05
2023-09-08T06:03:32.962Z,13.88
2023-09-08T06:06:36.350Z,11.03
2023-09-08T06:09:39.545Z,10.50
2023-09-08T06:12:44.695Z,11.20
2023-09-08T06:15:47.896Z,10.70
2023-09-08T06:18:51.141Z,8.02
2023-09-08T06:21:56.456Z,9.70
2023-09-08T06:24:59.746Z,7.82
2023-09-08T06:28:03.913Z,13.38
2023-09-08T06:31:07.609Z,11.07
2023-09-08T06:34:12.643Z,8.35
2023-09-08T06:37:16.490Z,7.43
2023-09-08T06:40:20.162Z,9.55
2023-09-08T06:43:23.616Z,8.73
2023-09-08T06:46:39.104Z,8.70
2023-09-08T06:49:42.888Z,10.90
2023-09-08T06:52:46.168Z,11.93
2023-09-08T06:55:52.484Z,11.68
2023-09-08T06:58:56.516Z,12.07
2023-09-08T07:01:59.791Z,12.88
2023-09-08T07:05:09.901Z,9.55
2023-09-08T07:08:13.533Z,9.53
2023-09-08T07:11:17.864Z,8.52
2023-09-08T07:14:22.331Z,11.65
2023-09-08T07:17:25.714Z,9.52
2023-09-08T07:20:31.530Z,8.18
2023-09-08T07:23:36.552Z,9.20
2023-09-08T07:26:40.233Z,8.77
2023-09-08T07:29:43.526Z,10.30
2023-09-08T07:32:47.004Z,9.45
2023-09-08T07:35:50.071Z,8.82
2023-09-08T07:38:53.451Z,8.20
2023-09-08T07:41:59.783Z,7.47
2023-09-08T07:45:05.388Z,7.88
2023-09-08T07:48:08.731Z,9.07
2023-09-08T07:51:11.822Z,9.20
2023-09-08T07:54:15.294Z,8.10
2023-09-08T07:57:27.409Z,8.98
2023-09-08T08:00:31.772Z,7.35
2023-09-08T08:03:36.838Z,9.93
2023-09-08T08:06:42.348Z,8.80
2023-09-08T08:15:26.549Z,6.60
2023-09-08T08:18:30.601Z,6.90
2023-09-08T08:21:34.039Z,7.45
2023-09-08T08:24:37.466Z,8.90
2023-09-08T08:27:41.718Z,6.73
2023-09-08T08:30:46.307Z,8.68
2023-09-08T08:33:51.411Z,7.28
2023-09-08T08:36:54.797Z,6.90
2023-09-08T08:39:57.686Z,6.70
2023-09-08T08:43:02.926Z,12.17
2023-09-08T08:46:07.392Z,6.50
2023-09-08T08:49:12.080Z,7.03
2023-09-08T08:52:16.634Z,6.25
2023-09-08T08:55:20.340Z,8.20
2023-09-08T08:58:26.890Z,6.97
2023-09-08T09:01:31.716Z,7.53
2023-09-08T09:04:38.750Z,10.10
2023-09-08T09:07:44.340Z,6.55
2023-09-08T09:10:47.859Z,6.78
2023-09-08T09:13:51.140Z,6.80
2023-09-08T09:16:57.625Z,9.02
2023-09-08T09:20:19.119Z,7.32
2023-09-08T09:23:36.088Z,6.65
2023-09-08T09:26:39.989Z,5.90
2023-09-08T09:29:48.070Z,7.10
2023-09-08T09:33:06.415Z,7.63
2023-09-08T09:36:10.631Z,7.57
2023-09-08T09:39:14.439Z,5.80
2023-09-08T09:42:23.438Z,7.35
2023-09-08T09:45:27.622Z,7.80
2023-09-08T09:48:30.948Z,6.95
2023-09-08T09:51:34.074Z,9.88
2023-09-08T09:54:37.582Z,9.77
2023-09-08T09:57:41.029Z,7.22
2023-09-08T10:00:49.724Z,7.27
2023-09-08T10:03:55.380Z,7.00
2023-09-08T10:06:59.601Z,5.60
2023-09-08T10:10:02.928Z,6.78
2023-09-08T10:13:08.542Z,6.25
2023-09-08T10:16:16.848Z,6.80
2023-09-08T10:19:21.886Z,6.93
2023-09-08T10:22:33.358Z,7.10
2023-09-08T10:25:42.944Z,6.88
2023-09-08T10:28:46.638Z,6.97
2023-09-08T10:31:53.538Z,7.63
2023-09-08T10:35:07.213Z,6.18
2023-09-08T10:38:34.169Z,7.68
2023-09-08T10:41:38.947Z,8.20
2023-09-08T10:44:42.150Z,6.47
2023-09-08T10:47:47.890Z,6.20
2023-09-08T10:50:50.945Z,7.75
2023-09-08T10:53:54.174Z,6.05
2023-09-08T10:56:57.615Z,6.28
2023-09-08T11:00:24.576Z,6.38
2023-09-08T11:03:44.176Z,5.77
2023-09-08T11:06:52.181Z,7.40
2023-09-08T11:09:55.265Z,5.82
2023-09-08T11:12:58.931Z,6.30
2023-09-08T11:16:04.155Z,7.30
2023-09-08T11:19:08.554Z,8.20
2023-09-08T11:22:12.110Z,9.90
2023-09-08T11:25:18.625Z,8.23
2023-09-08T11:28:25.733Z,8.25
2023-09-08T11:31:29.345Z,5.93
2023-09-08T11:34:32.291Z,8.37
2023-09-08T11:37:41.192Z,6.25
2023-09-08T11:40:44.339Z,7.20
2023-09-08T11:43:47.729Z,9.02
2023-09-08T11:46:51.049Z,6.53
2023-09-08T11:49:55.437Z,10.80
2023-09-08T11:53:03.815Z,7.38
2023-09-08T11:56:08.002Z,6.22
2023-09-08T11:59:11.442Z,10.50
2023-09-08T12:02:14.563Z,6.03
2023-09-08T12:05:28.232Z,6.30
2023-09-08T12:08:32.201Z,8.60
2023-09-08T12:11:42.731Z,7.50
2023-09-08T12:14:48.295Z,7.53
2023-09-08T12:17:51.864Z,8.35
2023-09-08T12:21:06.324Z,5.60
2023-09-08T12:24:14.124Z,6.53
2023-09-08T12:27:22.415Z,6.65
2023-09-08T12:30:31.136Z,6.88
2023-09-08T12:33:34.541Z,6.80
2023-09-08T12:36:37.560Z,6.80
2023-09-08T12:39:40.931Z,7.88
2023-09-08T12:42:50.493Z,10.65
2023-09-08T12:46:01.343Z,5.32
2023-09-08T12:49:04.485Z,6.30
2023-09-08T12:52:08.344Z,5.33
2023-09-08T12:55:11.873Z,4.93
2023-09-08T12:58:15.309Z,5.30
2023-09-08T13:01:18.502Z,7.28
2023-09-08T13:04:23.503Z,8.20
2023-09-08T13:07:28.260Z,8.00
2023-09-08T13:10:31.556Z,6.47
2023-09-08T13:13:34.597Z,11.38
2023-09-08T13:16:38.347Z,20.08
2023-09-08T13:19:41.630Z,9.57
2023-09-08T13:22:45.579Z,15.67
2023-09-08T13:25:48.852Z,8.52
2023-09-08T13:28:53.895Z,7.88
2023-09-08T13:31:58.512Z,9.40
2023-09-08T13:35:02.217Z,10.32
2023-09-08T13:38:05.930Z,11.20
2023-09-08T13:41:09.236Z,10.93
2023-09-08T13:44:12.876Z,9.80
2023-09-08T13:47:16.485Z,9.93
2023-09-08T13:50:21.308Z,10.27
2023-09-08T13:53:40.982Z,13.57
2023-09-08T13:56:47.240Z,7.90
2023-09-08T13:59:51.213Z,8.32
2023-09-08T14:02:59.053Z,7.95
2023-09-08T14:06:10.764Z,7.32
2023-09-08T14:15:31.655Z,9.25
2023-09-08T14:18:40.416Z,8.55
2023-09-08T14:21:44.355Z,6.80
2023-09-08T14:24:47.601Z,7.90
2023-09-08T14:27:51.327Z,7.75
2023-09-08T14:30:55.141Z,7.03
2023-09-08T14:33:59.089Z,6.32
2023-09-08T14:37:04.789Z,7.10
2023-09-08T14:40:09.603Z,6.60
2023-09-08T14:43:13.170Z,8.43
2023-09-08T14:46:16.733Z,7.43
2023-09-08T14:49:20.461Z,7.10
2023-09-08T14:52:24.202Z,7.53
2023-09-08T14:55:27.850Z,7.33
2023-09-08T14:58:35.416Z,6.85
2023-09-08T15:01:42.096Z,6.82
2023-09-08T15:04:46.071Z,8.55
2023-09-08T15:07:56.207Z,6.35
2023-09-08T15:11:05.380Z,6.73
2023-09-08T15:14:10.387Z,6.18
2023-09-08T15:17:41.160Z,8.32
2023-09-08T15:20:55.001Z,7.68
2023-09-08T15:23:59.384Z,5.88
2023-09-08T15:27:03.830Z,6.37
2023-09-08T15:30:07.987Z,6.70
2023-09-08T15:33:11.471Z,6.28
2023-09-08T15:36:15.282Z,5.85
2023-09-08T15:39:19.108Z,6.13
2023-09-08T15:42:22.214Z,6.30
2023-09-08T15:45:25.615Z,8.00
2023-09-08T15:48:28.515Z,7.30
2023-09-08T15:51:32.055Z,6.15
2023-09-08T15:54:35.919Z,6.13
2023-09-08T15:57:39.187Z,7.33
2023-09-08T16:00:42.568Z,6.80
2023-09-08T16:03:46.813Z,7.00
2023-09-08T16:06:51.368Z,6.30
2023-09-08T16:13:19.547Z,6.43
2023-09-08T16:16:24.769Z,6.00
2023-09-08T16:19:28.083Z,6.28
2023-09-08T16:22:31.663Z,5.38
2023-09-08T16:25:35.334Z,5.70
2023-09-08T16:28:38.817Z,6.03
2023-09-08T16:31:42.673Z,5.80
2023-09-08T16:34:47.110Z,6.85
2023-09-08T16:37:51.506Z,5.25
2023-09-08T16:40:59.177Z,7.13
2023-09-08T16:44:02.481Z,6.43
2023-09-08T16:47:06.323Z,5.45
2023-09-08T16:50:10.279Z,6.65
2023-09-08T16:53:13.645Z,5.05
2023-09-08T16:56:18.658Z,6.05
2023-09-08T16:59:23.728Z,5.10
2023-09-08T17:02:28.445Z,4.70
2023-09-08T17:05:32.081Z,5.93
2023-09-08T17:08:35.231Z,6.00
2023-09-08T17:11:41.540Z,5.57
2023-09-08T17:14:45.506Z,5.40
2023-09-08T17:17:50.727Z,5.53
2023-09-08T17:20:59.923Z,7.22
2023-09-08T17:24:04.267Z,6.13
2023-09-08T17:27:08.381Z,5.45
2023-09-08T17:30:12.447Z,6.73
2023-09-08T17:33:20.440Z,5.22
2023-09-08T17:36:24.838Z,5.22
2023-09-08T17:39:30.209Z,5.43
2023-09-08T17:42:34.199Z,6.10
2023-09-08T17:45:41.035Z,6.70
2023-09-08T17:49:03.406Z,5.25
2023-09-08T17:52:07.346Z,6.03
2023-09-08T17:55:11.305Z,5.47
2023-09-08T17:58:16.674Z,4.78
2023-09-08T18:01:21.402Z,5.10
2023-09-08T18:04:27.040Z,6.03
2023-09-08T18:07:32.700Z,5.30
2023-09-08T18:10:37.543Z,5.55
2023-09-08T18:13:42.877Z,5.65
2023-09-08T18:16:47.556Z,5.47
2023-09-08T18:19:52.661Z,5.15
2023-09-08T18:22:58.542Z,6.20
2023-09-08T18:26:04.014Z,5.55
2023-09-08T18:29:09.273Z,6.05
2023-09-08T18:32:14.503Z,4.93
2023-09-08T18:35:20.384Z,5.47
2023-09-08T18:38:25.339Z,5.68
2023-09-08T18:41:32.037Z,5.28
2023-09-08T18:44:43.596Z,4.78
2023-09-08T18:47:54.010Z,6.33
2023-09-08T18:51:01.057Z,5.10
2023-09-08T18:54:06.960Z,5.03
2023-09-08T18:57:11.856Z,4.57
2023-09-08T19:00:18.177Z,5.40
2023-09-08T19:03:25.696Z,5.33
2023-09-08T19:06:31.348Z,4.22
2023-09-08T19:09:40.124Z,5.25
2023-09-08T19:12:48.873Z,4.97
2023-09-08T19:15:58.881Z,5.70
2023-09-08T19:19:04.506Z,5.40
2023-09-08T19:22:10.498Z,4.38
2023-09-08T19:25:17.228Z,4.82
2023-09-08T19:28:27.105Z,5.93
2023-09-08T19:31:33.900Z,5.38
2023-09-08T19:34:57.901Z,5.63
2023-09-08T19:38:07.379Z,4.78
2023-09-08T19:41:14.409Z,5.03
2023-09-08T19:44:19.368Z,4.90
2023-09-08T19:47:25.087Z,5.18
2023-09-08T19:50:30.205Z,5.73
2023-09-08T19:53:35.227Z,5.28
2023-09-08T19:56:42.258Z,4.70
2023-09-08T19:59:50.312Z,5.10
2023-09-08T20:02:58.049Z,4.22
2023-09-08T20:06:05.411Z,5.23
2023-09-08T20:09:14.570Z,5.30
2023-09-08T20:12:20.426Z,5.53
2023-09-08T20:15:25.680Z,4.63
2023-09-08T20:18:39.983Z,4.50
2023-09-08T20:21:48.891Z,5.97
2023-09-08T20:24:56.676Z,5.10
2023-09-08T20:28:01.319Z,5.10
2023-09-08T20:31:17.021Z,5.93
2023-09-08T20:34:22.406Z,4.63
2023-09-08T20:37:27.989Z,4.80
2023-09-08T20:40:36.228Z,5.90
2023-09-08T20:43:43.869Z,4.45
2023-09-08T20:46:48.634Z,4.88
2023-09-08T20:49:57.062Z,4.93
2023-09-08T20:53:02.566Z,4.50
2023-09-08T20:56:08.453Z,4.68
2023-09-08T20:59:13.337Z,5.72
2023-09-08T21:02:19.502Z,4.20
2023-09-08T21:05:26.137Z,5.47
2023-09-08T21:08:34.045Z,4.37
2023-09-08T21:11:38.008Z,4.95
2023-09-08T21:14:41.416Z,4.53
2023-09-08T21:17:44.651Z,4.10
2023-09-08T21:20:52.773Z,4.85
2023-09-08T21:23:58.175Z,4.53
2023-09-08T21:27:01.483Z,4.75
2023-09-08T21:30:07.915Z,4.88
2023-09-08T21:33:14.596Z,5.45
2023-09-08T21:36:17.975Z,5.13
2023-09-08T21:39:24.213Z,5.27
2023-09-08T21:42:27.381Z,4.82
2023-09-08T21:45:31.036Z,5.28
2023-09-08T21:48:35.454Z,4.88
2023-09-08T21:51:39.721Z,4.85
2023-09-08T21:54:42.906Z,5.07
2023-09-08T21:57:46.544Z,4.22
2023-09-08T22:00:54.194Z,4.90
2023-09-08T22:03:57.510Z,4.63
2023-09-08T22:07:01.402Z,5.70
2023-09-08T22:10:06.981Z,4.63
2023-09-08T22:13:10.225Z,5.13
2023-09-08T22:16:14.419Z,4.63
2023-09-08T22:19:19.128Z,5.03
2023-09-08T22:22:24.162Z,4.50
2023-09-08T22:25:27.979Z,5.57
2023-09-08T22:28:31.107Z,4.70
2023-09-08T22:31:35.066Z,4.60
2023-09-08T22:34:39.173Z,5.63
2023-09-08T22:37:44.227Z,5.22
2023-09-08T22:40:48.366Z,5.77
2023-09-08T22:43:51.317Z,4.85
2023-09-08T22:46:54.943Z,6.47
2023-09-08T22:50:00.812Z,4.50
2023-09-08T22:53:10.354Z,4.97
2023-09-08T22:56:16.951Z,4.97
2023-09-08T22:59:20.466Z,5.35
2023-09-08T23:02:25.171Z,5.35
2023-09-08T23:05:28.783Z,6.18
2023-09-08T23:08:34.133Z,5.97
2023-09-08T23:11:37.168Z,5.20
2023-09-08T23:14:52.426Z,4.95
2023-09-08T23:17:58.176Z,5.32
2023-09-08T23:21:01.428Z,5.47
2023-09-08T23:24:05.175Z,5.47
2023-09-08T23:27:12.852Z,5.07
2023-09-08T23:30:21.500Z,4.80
2023-09-08T23:33:28.198Z,5.00
2023-09-08T23:36:38.432Z,5.78
2023-09-08T23:39:45.006Z,5.07
2023-09-08T23:42:49.030Z,3.93
2023-09-08T23:45:52.331Z,5.00
2023-09-08T23:48:57.843Z,4.55
2023-09-08T23:52:03.320Z,4.63
2023-09-08T23:55:10.833Z,4.78
2023-09-08T23:58:15.389Z,4.20
